Time;durP1;ratioP1;P1;durP2;ratioP2;P2;SDS_P1;SDS_P2;PMS_P1;PMS_P2;Temp;Humidity;BMP_temperature;BMP_pressure;BME280_temperature;BME280_humidity;BME280_pressure;Samples;Min_cycle;Max_cycle;Signal;HPM_P1;HPM_P2
2022/08/09 00:01:27;;;;;;;3.45;1.98;;;23.00;49.90;;;;;;4908051;29;20071;-77
2022/08/09 00:03:53;;;;;;;5.28;2.15;;;23.00;49.70;;;;;;4909577;29;20084;-77
2022/08/09 00:06:19;;;;;;;4.18;2.30;;;23.00;50.00;;;;;;4902311;29;20031;-76
2022/08/09 00:08:47;;;;;;;3.95;1.80;;;23.00;49.60;;;;;;4901883;29;20116;-77
2022/08/09 00:11:15;;;;;;;4.95;2.33;;;22.90;50.40;;;;;;4937958;29;20024;-77
2022/08/09 00:13:41;;;;;;;6.25;2.08;;;22.90;50.10;;;;;;4938042;29;20047;-77
2022/08/09 00:16:07;;;;;;;4.43;1.83;;;22.80;50.10;;;;;;4907889;29;20037;-77
2022/08/09 00:18:34;;;;;;;4.47;1.98;;;22.80;50.50;;;;;;4901963;29;20028;-77
2022/08/09 00:21:01;;;;;;;4.22;2.20;;;22.80;50.20;;;;;;4916749;29;20460;-77
2022/08/09 00:23:27;;;;;;;4.43;2.03;;;22.70;50.40;;;;;;4901975;29;20539;-77
2022/08/09 00:25:53;;;;;;;4.03;1.95;;;22.80;50.20;;;;;;4901698;29;20028;-77
2022/08/09 00:28:18;;;;;;;3.67;2.17;;;22.80;50.30;;;;;;4901397;29;20024;-77
2022/08/09 00:30:44;;;;;;;3.08;2.08;;;22.60;50.50;;;;;;4901490;29;20088;-77
2022/08/09 00:33:10;;;;;;;4.00;2.40;;;22.70;50.40;;;;;;4906993;29;20020;-77
2022/08/09 00:35:35;;;;;;;5.28;2.10;;;22.70;50.70;;;;;;4920385;29;20036;-77
2022/08/09 00:38:01;;;;;;;6.20;2.13;;;22.60;50.40;;;;;;4916008;29;20036;-77
2022/08/09 00:40:27;;;;;;;2.63;2.20;;;22.60;50.80;;;;;;4907844;29;20036;-77
2022/08/09 00:42:52;;;;;;;3.60;1.98;;;22.40;51.30;;;;;;4917643;29;20637;-77
2022/08/09 00:45:18;;;;;;;2.55;1.90;;;22.50;50.90;;;;;;4901629;29;20449;-77
2022/08/09 00:47:44;;;;;;;9.55;2.65;;;22.50;51.10;;;;;;4900949;29;20071;-77
2022/08/09 00:50:10;;;;;;;7.57;2.22;;;22.40;51.10;;;;;;4901359;29;20056;-78
2022/08/09 00:52:36;;;;;;;3.17;1.73;;;22.40;51.60;;;;;;4901435;29;20164;-77
2022/08/09 00:55:04;;;;;;;3.38;2.03;;;22.40;51.20;;;;;;4901237;29;20048;-77
2022/08/09 00:57:30;;;;;;;5.22;2.00;;;22.30;51.50;;;;;;4901378;29;20040;-79
2022/08/09 00:59:57;;;;;;;5.10;1.90;;;22.30;51.50;;;;;;4901273;29;20027;-77
2022/08/09 01:02:28;;;;;;;4.80;1.90;;;22.30;51.20;;;;;;4922950;29;20107;-77
2022/08/09 01:05:07;;;;;;;6.90;2.80;;;22.30;51.60;;;;;;4919872;29;20531;-77
2022/08/09 01:07:36;;;;;;;3.75;2.08;;;22.20;51.50;;;;;;4933860;29;20036;-77
2022/08/09 01:10:03;;;;;;;3.00;1.85;;;22.30;51.80;;;;;;4942928;29;20438;-77
2022/08/09 01:12:50;;;;;;;3.55;2.13;;;22.20;51.90;;;;;;4931605;29;20096;-77
2022/08/09 01:15:21;;;;;;;5.28;2.97;;;22.20;51.70;;;;;;4917742;29;20035;-77
2022/08/09 01:18:07;;;;;;;2.35;1.75;;;22.20;51.50;;;;;;4899950;29;20036;-77
2022/08/09 01:20:51;;;;;;;3.55;2.17;;;22.10;51.70;;;;;;4903214;29;20037;-77
2022/08/09 01:23:45;;;;;;;3.33;2.08;;;22.00;51.80;;;;;;4919488;29;20031;-77
2022/08/09 01:26:38;;;;;;;3.70;2.10;;;22.10;52.20;;;;;;4934597;29;20032;-77
2022/08/09 01:29:09;;;;;;;6.18;2.53;;;22.00;51.80;;;;;;4925320;29;20033;-77
2022/08/09 01:31:36;;;;;;;3.00;2.10;;;22.00;52.20;;;;;;4906254;29;20035;-77
2022/08/09 01:34:04;;;;;;;5.45;2.10;;;22.00;52.30;;;;;;4919600;29;20032;-77
2022/08/09 01:36:32;;;;;;;4.10;2.13;;;22.00;51.80;;;;;;4905802;29;20032;-77
2022/08/09 01:39:00;;;;;;;2.83;1.90;;;21.90;52.20;;;;;;4900843;29;20092;-77
2022/08/09 01:41:31;;;;;;;5.93;2.40;;;21.90;52.00;;;;;;4914987;29;20028;-77
2022/08/09 01:44:00;;;;;;;4.55;2.20;;;21.90;52.00;;;;;;4908792;29;20047;-77
2022/08/09 01:46:37;;;;;;;8.23;2.47;;;21.80;52.10;;;;;;4900403;29;20028;-77
2022/08/09 01:49:11;;;;;;;4.30;2.28;;;21.80;52.50;;;;;;4900343;29;20036;-77
2022/08/09 01:51:44;;;;;;;3.78;2.17;;;21.70;52.60;;;;;;4900517;29;20033;-77
2022/08/09 01:54:10;;;;;;;2.58;2.10;;;21.80;52.60;;;;;;4908750;29;20361;-79
2022/08/09 01:56:41;;;;;;;3.33;1.80;;;21.70;52.80;;;;;;4919532;29;20041;-77
2022/08/09 01:59:10;;;;;;;3.97;2.20;;;21.70;52.60;;;;;;4900454;29;20059;-79
2022/08/09 02:01:38;;;;;;;3.70;2.17;;;21.70;53.00;;;;;;4899649;29;20535;-79
2022/08/09 02:04:05;;;;;;;5.10;2.10;;;21.60;52.90;;;;;;4900244;29;20028;-79
2022/08/09 02:09:19;;;;;;;3.28;2.05;;;21.50;52.80;;;;;;4905713;29;20514;-77
2022/08/09 02:11:45;;;;;;;3.78;1.98;;;21.50;53.30;;;;;;4952932;29;20024;-77
2022/08/09 02:14:34;;;;;;;4.03;1.70;;;21.50;53.20;;;;;;4938122;29;20046;-77
2022/08/09 02:17:00;;;;;;;3.95;2.00;;;21.50;53.10;;;;;;4921872;29;20028;-79
2022/08/09 02:19:26;;;;;;;4.38;2.00;;;21.40;53.20;;;;;;4900203;29;20497;-77
2022/08/09 02:21:56;;;;;;;2.70;2.00;;;21.40;53.30;;;;;;4914841;29;20029;-79
2022/08/09 02:24:25;;;;;;;3.97;2.30;;;21.30;53.40;;;;;;4914119;29;20039;-77
2022/08/09 02:26:56;;;;;;;2.22;2.00;;;21.40;53.30;;;;;;4907932;29;20115;-77
2022/08/09 02:29:25;;;;;;;6.68;2.30;;;21.40;53.20;;;;;;4904015;29;20032;-77
2022/08/09 02:31:59;;;;;;;4.65;2.50;;;21.30;53.40;;;;;;4906806;29;20479;-78
2022/08/09 02:34:32;;;;;;;4.65;1.65;;;21.30;53.60;;;;;;4908223;29;20033;-77
2022/08/09 02:37:21;;;;;;;3.10;2.00;;;21.30;53.80;;;;;;4903419;29;20155;-77
2022/08/09 02:39:51;;;;;;;2.38;1.80;;;21.20;53.90;;;;;;4902644;29;20454;-77
2022/08/09 02:42:22;;;;;;;3.80;2.20;;;21.20;53.70;;;;;;4909534;29;20607;-78
2022/08/09 02:45:11;;;;;;;4.15;2.20;;;21.20;53.60;;;;;;4903635;29;20136;-78
2022/08/09 02:47:40;;;;;;;3.63;2.20;;;21.20;53.60;;;;;;4906685;29;20028;-78
2022/08/09 02:50:27;;;;;;;3.03;2.10;;;21.20;53.80;;;;;;4911126;29;20040;-77
2022/08/09 02:52:58;;;;;;;3.17;2.08;;;21.10;54.30;;;;;;4903650;29;20029;-78
2022/08/09 02:55:25;;;;;;;5.40;2.30;;;21.10;53.80;;;;;;4903357;29;20044;-77
2022/08/09 02:57:52;;;;;;;2.40;1.92;;;21.00;53.70;;;;;;4903403;29;20040;-77
2022/08/09 03:00:19;;;;;;;3.38;2.20;;;21.00;53.70;;;;;;4903555;29;20100;-77
2022/08/09 03:02:50;;;;;;;5.13;2.50;;;21.00;54.30;;;;;;4909781;29;20127;-77
2022/08/09 03:05:17;;;;;;;3.47;2.08;;;20.90;54.60;;;;;;4916575;29;20096;-77
2022/08/09 03:07:43;;;;;;;7.45;2.42;;;20.80;54.70;;;;;;4902111;29;20079;-77
2022/08/09 03:10:09;;;;;;;2.78;1.88;;;20.80;54.50;;;;;;4915979;29;20036;-77
2022/08/09 03:12:37;;;;;;;4.43;2.55;;;20.80;54.10;;;;;;4916133;29;20484;-78
2022/08/09 03:15:05;;;;;;;8.68;2.60;;;20.80;54.50;;;;;;4916669;29;20076;-77
2022/08/09 03:17:35;;;;;;;7.93;2.30;;;20.80;54.60;;;;;;4901844;29;20032;-77
2022/08/09 03:20:01;;;;;;;6.63;2.58;;;20.80;55.10;;;;;;4916725;29;20040;-77
2022/08/09 03:25:18;;;;;;;3.95;2.80;;;20.70;55.30;;;;;;4902215;29;20036;-77
2022/08/09 03:27:48;;;;;;;3.55;2.10;;;20.70;55.00;;;;;;4901775;29;20511;-78
2022/08/09 03:30:15;;;;;;;3.00;2.10;;;20.60;55.50;;;;;;4901935;29;20025;-77
2022/08/09 03:32:41;;;;;;;2.40;2.17;;;20.60;55.20;;;;;;4906359;29;20053;-77
2022/08/09 03:35:10;;;;;;;4.47;2.78;;;20.50;56.00;;;;;;4903619;29;20501;-78
2022/08/09 03:37:39;;;;;;;4.20;2.58;;;20.50;55.80;;;;;;4914671;29;20024;-77
2022/08/09 03:40:16;;;;;;;4.20;2.30;;;20.40;55.60;;;;;;4916371;29;20380;-78
2022/08/09 03:42:41;;;;;;;6.15;2.50;;;20.40;55.70;;;;;;4908017;29;20051;-78
2022/08/09 03:45:07;;;;;;;6.00;2.10;;;20.40;55.80;;;;;;4901659;29;20016;-78
2022/08/09 03:47:33;;;;;;;10.35;3.70;;;20.40;55.80;;;;;;4901207;29;20067;-77
2022/08/09 03:50:01;;;;;;;3.63;2.30;;;20.30;56.10;;;;;;4901244;29;20029;-77
2022/08/09 03:52:28;;;;;;;3.63;2.40;;;20.30;55.90;;;;;;4901528;29;20102;-78
2022/08/09 03:54:55;;;;;;;3.45;2.28;;;20.30;56.30;;;;;;4901318;29;20057;-77
2022/08/09 03:57:21;;;;;;;6.03;2.55;;;20.20;56.60;;;;;;4901382;29;20108;-77
2022/08/09 03:59:48;;;;;;;4.25;2.90;;;20.20;56.30;;;;;;4901337;29;20070;-77
2022/08/09 04:02:14;;;;;;;3.78;2.22;;;20.20;56.60;;;;;;4861762;29;1180138;-77
2022/08/09 04:04:40;;;;;;;5.75;2.47;;;20.10;57.00;;;;;;4902012;29;20067;-77
2022/08/09 04:07:06;;;;;;;4.38;2.63;;;20.10;57.00;;;;;;4901901;29;20044;-77
2022/08/09 04:09:32;;;;;;;3.75;2.50;;;20.00;57.10;;;;;;4911786;29;20125;-77
2022/08/09 04:12:10;;;;;;;4.35;2.50;;;20.00;56.70;;;;;;4927479;29;20032;-77
2022/08/09 04:14:39;;;;;;;4.63;2.60;;;20.00;57.20;;;;;;4920746;29;20040;-77
2022/08/09 04:17:06;;;;;;;4.50;2.53;;;19.90;57.30;;;;;;4920843;29;20032;-77
2022/08/09 04:19:47;;;;;;;4.60;2.83;;;19.90;57.50;;;;;;4920972;29;20044;-78
2022/08/09 04:22:13;;;;;;;2.80;2.50;;;19.80;57.40;;;;;;4903686;29;20033;-77
2022/08/09 04:24:39;;;;;;;7.40;2.92;;;19.80;57.90;;;;;;4900603;29;20113;-77
2022/08/09 04:27:04;;;;;;;9.13;3.05;;;19.80;58.10;;;;;;4905637;29;20033;-77
2022/08/09 04:29:30;;;;;;;4.47;2.80;;;19.80;58.00;;;;;;4902077;29;20040;-78
2022/08/09 04:31:56;;;;;;;4.72;2.95;;;19.70;58.00;;;;;;4901633;29;20036;-77
2022/08/09 04:34:21;;;;;;;3.30;2.35;;;19.80;57.60;;;;;;4902419;29;20036;-78
2022/08/09 04:36:47;;;;;;;5.68;2.65;;;19.70;58.40;;;;;;4901661;29;20029;-77
2022/08/09 04:39:13;;;;;;;5.20;2.47;;;19.70;58.10;;;;;;4901339;29;20032;-79
2022/08/09 04:41:38;;;;;;;5.55;3.25;;;19.60;58.00;;;;;;4902178;29;20093;-80
2022/08/09 04:44:04;;;;;;;6.93;2.88;;;19.60;58.00;;;;;;4919162;29;20035;-79
2022/08/09 04:46:30;;;;;;;10.05;2.90;;;19.70;57.60;;;;;;4919065;29;20028;-78
2022/08/09 04:48:56;;;;;;;6.15;3.05;;;19.70;57.70;;;;;;4916365;29;20145;-78
2022/08/09 04:51:21;;;;;;;2.95;2.58;;;19.70;57.30;;;;;;4907523;29;20028;-78
2022/08/09 04:53:57;;;;;;;3.35;3.00;;;19.70;57.80;;;;;;4911872;29;20048;-79
2022/08/09 04:56:22;;;;;;;6.18;2.80;;;19.70;57.80;;;;;;4923703;29;20056;-78
2022/08/09 04:58:48;;;;;;;5.75;3.10;;;19.60;57.40;;;;;;4919190;29;20400;-78
2022/08/09 05:01:14;;;;;;;3.20;2.60;;;19.70;57.70;;;;;;4920192;29;20036;-78
2022/08/09 05:03:39;;;;;;;4.60;2.72;;;19.70;57.30;;;;;;4914096;29;20028;-78
2022/08/09 05:06:05;;;;;;;6.95;3.00;;;19.70;58.00;;;;;;4919226;29;20492;-84
2022/08/09 05:08:33;;;;;;;7.97;3.00;;;19.60;57.80;;;;;;4919895;29;20107;-78
2022/08/09 05:11:00;;;;;;;5.20;3.03;;;19.50;58.20;;;;;;4927806;29;20028;-79
2022/08/09 05:13:26;;;;;;;4.95;2.85;;;19.50;58.50;;;;;;4919095;29;20028;-79
2022/08/09 05:15:51;;;;;;;4.45;3.08;;;19.50;58.20;;;;;;4920045;29;20035;-79
2022/08/09 05:18:17;;;;;;;3.40;2.63;;;19.50;58.00;;;;;;4918859;29;20028;-78
2022/08/09 05:20:43;;;;;;;3.42;2.63;;;19.50;58.60;;;;;;4904003;29;20090;-79
2022/08/09 05:23:08;;;;;;;4.13;2.83;;;19.50;58.40;;;;;;4904662;29;20032;-79
2022/08/09 05:25:34;;;;;;;5.05;2.88;;;19.50;58.50;;;;;;4918498;29;20052;-79
2022/08/09 05:28:00;;;;;;;5.10;2.92;;;19.50;58.90;;;;;;4918348;29;20070;-79
2022/08/09 05:30:26;;;;;;;5.22;2.80;;;19.40;58.50;;;;;;4919472;29;20031;-79
2022/08/09 05:32:52;;;;;;;6.68;2.65;;;19.40;59.40;;;;;;4917515;29;20028;-79
2022/08/09 05:35:19;;;;;;;4.70;2.70;;;19.40;59.50;;;;;;4934735;29;20086;-79
2022/08/09 05:37:44;;;;;;;4.18;2.42;;;19.40;58.60;;;;;;4924430;29;20032;-78
2022/08/09 05:40:11;;;;;;;8.52;3.30;;;19.40;58.90;;;;;;4902221;29;20049;-79
2022/08/09 05:42:37;;;;;;;4.72;3.28;;;19.40;59.10;;;;;;4908459;29;20024;-79
2022/08/09 05:45:03;;;;;;;6.63;3.13;;;19.30;59.20;;;;;;4919366;29;20103;-79
2022/08/09 05:47:29;;;;;;;3.72;2.80;;;19.40;59.50;;;;;;4915258;29;20035;-78
2022/08/09 05:49:55;;;;;;;5.82;2.78;;;19.30;59.20;;;;;;4915516;29;20032;-79
2022/08/09 05:52:22;;;;;;;5.10;2.80;;;19.30;59.90;;;;;;4899821;29;20032;-78
2022/08/09 05:54:48;;;;;;;5.00;2.45;;;19.40;59.40;;;;;;4900351;29;20107;-78
2022/08/09 05:57:14;;;;;;;4.57;2.50;;;19.30;59.90;;;;;;4900063;29;20029;-78
2022/08/09 05:59:40;;;;;;;6.95;3.42;;;19.30;60.40;;;;;;4900247;29;20040;-78
2022/08/09 06:02:06;;;;;;;3.15;2.47;;;19.30;60.70;;;;;;4900082;29;20125;-78
2022/08/09 06:04:32;;;;;;;3.20;2.47;;;19.30;60.30;;;;;;4900285;29;20036;-78
2022/08/09 06:06:57;;;;;;;3.75;2.65;;;19.30;60.10;;;;;;4900375;29;20037;-78
2022/08/09 06:09:23;;;;;;;6.55;3.10;;;19.30;60.30;;;;;;4921271;29;20039;-78
2022/08/09 06:11:48;;;;;;;5.32;2.83;;;19.30;60.50;;;;;;4938837;29;20031;-78
2022/08/09 06:14:16;;;;;;;6.32;3.13;;;19.30;61.30;;;;;;4900398;29;20036;-78
2022/08/09 06:16:42;;;;;;;3.90;2.65;;;19.40;60.80;;;;;;4900283;29;20021;-77
2022/08/09 06:19:08;;;;;;;6.20;2.75;;;19.40;60.60;;;;;;4900385;29;20036;-78
2022/08/09 06:21:34;;;;;;;5.45;2.70;;;19.50;60.30;;;;;;4913971;29;20032;-78
2022/08/09 06:23:59;;;;;;;3.97;2.50;;;19.50;60.30;;;;;;4900210;29;20418;-78
2022/08/09 06:26:25;;;;;;;5.57;2.80;;;19.50;61.40;;;;;;4900233;29;20060;-78
2022/08/09 06:28:53;;;;;;;5.78;3.10;;;19.50;60.60;;;;;;4899815;29;20123;-78
2022/08/09 06:31:18;;;;;;;5.32;2.72;;;19.50;61.20;;;;;;4899752;29;20040;-77
2022/08/09 06:33:44;;;;;;;5.75;2.75;;;19.50;60.80;;;;;;4899987;29;20827;-78
2022/08/09 06:36:09;;;;;;;5.88;2.55;;;19.50;60.80;;;;;;4900292;29;20028;-77
2022/08/09 06:38:35;;;;;;;4.97;3.17;;;19.50;61.30;;;;;;4899858;29;20028;-78
2022/08/09 06:41:01;;;;;;;3.85;2.58;;;19.60;61.40;;;;;;4900230;29;20029;-77
2022/08/09 06:43:27;;;;;;;8.02;2.72;;;19.70;60.80;;;;;;4899940;29;20039;-78
2022/08/09 06:45:53;;;;;;;8.90;3.35;;;19.80;61.10;;;;;;4899435;29;21021;-78
2022/08/09 06:48:19;;;;;;;6.63;2.78;;;19.90;61.40;;;;;;4899878;29;20043;-78
2022/08/09 06:50:45;;;;;;;5.38;2.25;;;19.80;61.00;;;;;;4900015;29;20032;-78
2022/08/09 06:53:12;;;;;;;5.00;2.80;;;19.90;60.70;;;;;;4900062;29;20029;-78
2022/08/09 06:55:38;;;;;;;4.78;2.78;;;20.00;60.70;;;;;;4913193;29;20052;-78
2022/08/09 06:58:03;;;;;;;4.50;2.60;;;20.00;61.00;;;;;;4914575;29;20036;-77
2022/08/09 07:00:29;;;;;;;5.75;2.65;;;20.00;61.00;;;;;;4899800;29;20032;-78
2022/08/09 07:02:56;;;;;;;4.85;2.85;;;20.20;60.30;;;;;;4899779;29;20080;-78
2022/08/09 07:05:22;;;;;;;7.22;3.20;;;20.30;59.70;;;;;;4899332;29;20036;-78
2022/08/09 07:07:48;;;;;;;5.28;2.90;;;20.30;60.20;;;;;;4899782;29;20035;-77
2022/08/09 07:10:14;;;;;;;3.78;2.35;;;20.30;60.00;;;;;;4921236;29;20120;-78
2022/08/09 07:12:39;;;;;;;4.57;2.47;;;20.40;59.60;;;;;;4920041;29;20059;-77
2022/08/09 07:15:05;;;;;;;5.38;2.90;;;20.70;59.40;;;;;;4914979;29;20580;-78
2022/08/09 07:17:31;;;;;;;4.32;2.40;;;20.90;58.50;;;;;;4903172;29;20036;-75
2022/08/09 07:19:57;;;;;;;4.72;2.83;;;21.50;57.10;;;;;;4903106;29;20033;-78
2022/08/09 07:22:23;;;;;;;2.80;2.17;;;22.90;53.70;;;;;;4902619;29;20040;-76
2022/08/09 07:24:48;;;;;;;3.95;2.33;;;25.90;47.40;;;;;;4903109;29;20099;-76
2022/08/09 07:27:14;;;;;;;5.15;2.17;;;29.00;40.20;;;;;;4903026;29;20041;-76
2022/08/09 07:29:40;;;;;;;6.68;1.92;;;31.40;35.90;;;;;;4902857;29;20087;-76
2022/08/09 07:32:06;;;;;;;5.78;2.80;;;33.10;33.30;;;;;;4903110;29;20041;-76
2022/08/09 07:34:33;;;;;;;2.90;1.52;;;34.20;30.70;;;;;;4902939;29;20033;-76
2022/08/09 07:36:59;;;;;;;4.43;1.70;;;34.90;29.90;;;;;;4902886;29;20119;-76
2022/08/09 07:39:24;;;;;;;4.90;1.40;;;34.40;30.10;;;;;;4902659;29;20041;-76
2022/08/09 07:41:50;;;;;;;3.40;1.73;;;34.00;30.20;;;;;;4902615;29;20088;-76
2022/08/09 07:44:16;;;;;;;3.95;1.80;;;33.00;31.50;;;;;;4917210;29;20092;-76
2022/08/09 07:46:41;;;;;;;2.83;1.55;;;32.80;31.80;;;;;;4902703;29;20132;-76
2022/08/09 07:49:07;;;;;;;4.70;1.65;;;33.50;30.80;;;;;;4917059;29;20039;-76
2022/08/09 07:51:33;;;;;;;7.47;1.90;;;34.60;29.70;;;;;;4902785;29;20039;-76
2022/08/09 07:53:58;;;;;;;7.22;1.60;;;36.00;28.10;;;;;;4902716;29;20025;-76
2022/08/09 07:56:26;;;;;;;2.08;1.25;;;37.00;26.80;;;;;;4902663;29;20069;-76
2022/08/09 07:58:51;;;;;;;4.10;1.65;;;38.00;25.40;;;;;;4902220;29;20028;-76
2022/08/09 08:01:17;;;;;;;2.90;1.52;;;38.80;25.30;;;;;;4902034;29;20519;-76
2022/08/09 08:03:43;;;;;;;3.40;1.63;;;39.60;24.30;;;;;;4902530;29;20036;-77
2022/08/09 08:06:08;;;;;;;3.25;1.48;;;40.00;23.50;;;;;;4916697;29;20088;-76
2022/08/09 08:08:34;;;;;;;4.22;1.75;;;40.30;23.30;;;;;;4904858;29;20036;-76
2022/08/09 08:11:00;;;;;;;3.00;1.45;;;40.60;22.70;;;;;;4928974;29;20107;-76
2022/08/09 08:13:26;;;;;;;3.75;1.70;;;41.20;22.60;;;;;;4921077;29;20020;-76
2022/08/09 08:15:51;;;;;;;2.10;1.05;;;41.60;22.30;;;;;;4919277;29;20047;-76
2022/08/09 08:18:17;;;;;;;3.28;1.50;;;41.80;21.20;;;;;;4901918;29;20025;-76
2022/08/09 08:20:44;;;;;;;9.13;1.55;;;41.90;21.10;;;;;;4902113;29;20133;-76
2022/08/09 08:23:10;;;;;;;1.73;1.20;;;42.30;21.20;;;;;;4901672;29;20021;-76
2022/08/09 08:25:36;;;;;;;3.38;1.30;;;42.40;20.30;;;;;;4915570;29;20039;-76
2022/08/09 08:28:02;;;;;;;3.92;1.33;;;42.60;21.10;;;;;;4901847;29;20065;-76
2022/08/09 08:30:28;;;;;;;2.80;1.17;;;42.90;20.70;;;;;;4916656;29;20480;-76
2022/08/09 08:32:55;;;;;;;3.58;1.30;;;43.10;20.50;;;;;;4904186;29;20024;-76
2022/08/09 08:35:21;;;;;;;5.47;1.52;;;43.40;20.00;;;;;;4911001;29;20024;-76
2022/08/09 08:37:47;;;;;;;3.95;1.33;;;43.30;20.00;;;;;;4919696;29;20055;-76
2022/08/09 08:40:13;;;;;;;3.38;1.20;;;43.10;20.00;;;;;;4902790;29;20037;-76
2022/08/09 08:42:40;;;;;;;4.43;1.30;;;43.10;19.70;;;;;;4901954;29;20056;-76
2022/08/09 08:45:07;;;;;;;3.33;1.00;;;43.30;19.80;;;;;;4901832;29;20041;-76
2022/08/09 08:47:33;;;;;;;3.33;1.20;;;43.10;19.60;;;;;;4915264;29;20281;-76
2022/08/09 08:49:59;;;;;;;5.35;1.25;;;43.30;19.50;;;;;;4901469;29;20485;-76
2022/08/09 08:52:28;;;;;;;1.88;1.20;;;43.30;20.00;;;;;;4901215;29;20052;-76
2022/08/09 08:54:58;;;;;;;3.13;1.30;;;43.40;19.80;;;;;;4916105;29;20068;-76
2022/08/09 08:57:25;;;;;;;3.65;1.42;;;42.80;18.80;;;;;;4901215;29;20116;-76
2022/08/09 08:59:51;;;;;;;3.50;1.23;;;42.40;19.70;;;;;;4916120;29;20028;-76
2022/08/09 09:02:26;;;;;;;3.05;1.30;;;42.00;19.90;;;;;;4900877;29;20059;-76
2022/08/09 09:04:53;;;;;;;2.28;1.27;;;41.90;19.60;;;;;;4901269;29;20381;-75
2022/08/09 09:07:20;;;;;;;3.78;1.23;;;41.90;20.30;;;;;;4901272;29;20025;-75
2022/08/09 09:09:47;;;;;;;4.05;1.20;;;41.70;20.30;;;;;;4924057;29;20081;-75
2022/08/09 09:12:21;;;;;;;3.05;1.15;;;41.50;20.10;;;;;;4936667;29;20029;-75
2022/08/09 09:14:48;;;;;;;5.40;3.28;;;41.10;20.80;;;;;;4905289;29;20041;-75
2022/08/09 09:17:15;;;;;;;8.48;7.78;;;40.50;21.30;;;;;;4901042;29;20512;-75
2022/08/09 09:19:41;;;;;;;2.42;1.27;;;40.10;21.50;;;;;;4899857;29;20052;-75
2022/08/09 09:22:12;;;;;;;1.58;1.13;;;39.70;21.60;;;;;;4900974;29;20029;-75
2022/08/09 09:24:44;;;;;;;4.45;3.75;;;39.60;21.80;;;;;;4914460;29;20036;-75
2022/08/09 09:27:13;;;;;;;3.03;2.58;;;40.10;21.70;;;;;;4900695;29;20028;-76
2022/08/09 09:29:42;;;;;;;3.55;1.27;;;40.40;21.20;;;;;;4900783;29;20112;-75
2022/08/09 09:32:09;;;;;;;2.55;1.27;;;41.10;20.90;;;;;;4900452;29;20060;-76
2022/08/09 09:34:35;;;;;;;3.40;1.20;;;41.70;20.20;;;;;;4900552;29;20035;-76
2022/08/09 09:37:02;;;;;;;7.25;3.45;;;41.90;20.00;;;;;;4915225;29;20076;-76
2022/08/09 09:39:29;;;;;;;5.05;1.40;;;42.20;19.90;;;;;;4900617;29;20041;-76
2022/08/09 09:41:56;;;;;;;3.33;2.85;;;41.80;19.40;;;;;;4900642;29;20068;-76
2022/08/09 09:44:29;;;;;;;3.47;1.20;;;41.90;19.70;;;;;;4914956;29;20523;-76
2022/08/09 09:47:02;;;;;;;3.15;1.63;;;42.20;19.90;;;;;;4900414;29;20377;-76
2022/08/09 09:49:29;;;;;;;3.95;1.30;;;42.30;19.70;;;;;;4900675;29;20037;-75
2022/08/09 09:52:07;;;;;;;1.90;1.10;;;42.60;19.80;;;;;;4900488;29;20099;-76
2022/08/09 09:54:45;;;;;;;2.45;1.25;;;42.90;19.20;;;;;;4900345;29;20032;-75
2022/08/09 09:57:19;;;;;;;2.67;1.20;;;43.20;19.40;;;;;;4900418;29;20045;-76
2022/08/09 09:59:48;;;;;;;2.22;1.10;;;43.10;19.40;;;;;;4900296;29;20051;-76
2022/08/09 10:02:15;;;;;;;3.42;1.20;;;43.10;19.30;;;;;;4914428;29;20049;-76
2022/08/09 10:04:41;;;;;;;2.75;1.05;;;43.30;18.60;;;;;;4900532;29;20119;-76
2022/08/09 10:07:26;;;;;;;4.20;1.30;;;42.80;19.10;;;;;;4900181;29;20037;-75
2022/08/09 10:09:54;;;;;;;1.80;0.90;;;42.90;19.40;;;;;;4915039;29;20111;-76
2022/08/09 10:12:35;;;;;;;4.72;1.02;;;43.10;19.70;;;;;;4920463;29;20036;-76
2022/08/09 10:15:16;;;;;;;6.15;1.40;;;42.90;19.40;;;;;;4909814;29;20073;-76
2022/08/09 10:17:43;;;;;;;3.83;1.02;;;42.70;19.70;;;;;;4900159;29;20437;-76
2022/08/09 10:20:21;;;;;;;2.90;1.42;;;42.40;19.70;;;;;;4899761;29;20029;-76
2022/08/09 10:22:50;;;;;;;3.50;1.05;;;42.00;19.40;;;;;;4900149;29;20515;-76
2022/08/09 10:25:16;;;;;;;3.45;0.95;;;41.80;20.00;;;;;;4900526;29;20052;-75
2022/08/09 10:27:43;;;;;;;4.32;1.42;;;41.40;20.40;;;;;;4900273;29;20378;-76
2022/08/09 10:30:09;;;;;;;2.50;1.13;;;41.20;20.40;;;;;;4900249;29;20533;-75
2022/08/09 10:32:35;;;;;;;1.75;0.90;;;40.80;20.70;;;;;;4899678;29;20036;-75
2022/08/09 10:35:02;;;;;;;1.80;1.10;;;40.80;20.80;;;;;;4900196;29;20052;-75
2022/08/09 10:37:28;;;;;;;3.60;0.90;;;40.10;21.80;;;;;;4899932;29;20107;-76
2022/08/09 10:39:54;;;;;;;1.85;0.80;;;39.00;22.30;;;;;;4900219;29;20056;-76
2022/08/09 10:42:21;;;;;;;3.22;1.02;;;38.00;23.10;;;;;;4899843;29;20104;-75
2022/08/09 10:45:07;;;;;;;4.65;1.10;;;37.40;23.60;;;;;;4914715;29;20047;-75
2022/08/09 10:47:44;;;;;;;1.88;1.08;;;36.50;24.70;;;;;;4901314;29;20064;-75
2022/08/09 10:53:41;;;;;;;1.88;1.13;;;35.50;25.90;;;;;;4903894;29;20429;-75
2022/08/09 10:56:23;;;;;;;7.40;1.55;;;34.90;25.90;;;;;;4903089;29;20108;-75
2022/08/09 10:58:54;;;;;;;1.90;1.15;;;34.50;26.40;;;;;;4922197;29;20051;-75
2022/08/09 11:01:32;;;;;;;2.83;1.50;;;34.30;26.70;;;;;;4916552;29;20568;-76
2022/08/09 11:04:19;;;;;;;2.80;1.10;;;33.80;27.50;;;;;;4903499;29;20583;-75
2022/08/09 11:07:08;;;;;;;5.40;1.00;;;33.80;27.50;;;;;;4903485;29;20063;-75
2022/08/09 11:09:37;;;;;;;2.85;0.93;;;33.80;27.60;;;;;;4912024;29;20035;-75
2022/08/09 11:12:15;;;;;;;3.45;1.25;;;33.60;27.90;;;;;;4940443;29;20043;-75
2022/08/09 11:14:55;;;;;;;1.67;1.17;;;33.70;27.50;;;;;;4905154;29;20106;-75
2022/08/09 11:17:21;;;;;;;2.38;1.23;;;33.60;27.80;;;;;;4902999;29;20040;-75
2022/08/09 11:19:54;;;;;;;3.10;1.40;;;33.60;28.30;;;;;;4903337;29;20028;-75
2022/08/09 11:22:43;;;;;;;2.97;1.40;;;33.70;27.90;;;;;;4902964;29;20047;-75
2022/08/09 11:25:17;;;;;;;2.20;1.27;;;33.50;28.50;;;;;;4903197;29;20037;-75
2022/08/09 11:27:43;;;;;;;1.60;1.20;;;33.50;27.70;;;;;;4903158;29;20120;-75
2022/08/09 11:30:22;;;;;;;1.60;1.23;;;33.30;27.50;;;;;;4902780;29;20040;-76
2022/08/09 11:32:53;;;;;;;4.10;1.20;;;33.20;27.60;;;;;;4902610;29;20096;-77
2022/08/09 11:35:31;;;;;;;3.40;1.30;;;33.10;28.00;;;;;;4902935;29;20449;-75
2022/08/09 11:38:12;;;;;;;2.88;1.30;;;33.10;28.30;;;;;;4902867;29;20025;-75
2022/08/09 11:40:38;;;;;;;4.70;1.10;;;33.20;28.30;;;;;;4916653;29;20032;-77
2022/08/09 11:43:04;;;;;;;2.63;1.10;;;33.20;29.00;;;;;;4902750;29;20409;-77
2022/08/09 11:45:37;;;;;;;3.75;1.10;;;33.30;29.00;;;;;;4902751;29;20626;-77
2022/08/09 11:48:18;;;;;;;3.22;1.27;;;33.30;28.70;;;;;;4902632;29;20408;-77
2022/08/09 11:50:56;;;;;;;2.15;1.25;;;33.20;27.50;;;;;;4902955;29;20075;-77
2022/08/09 11:53:23;;;;;;;2.15;1.45;;;33.00;27.90;;;;;;4902422;29;20029;-77
2022/08/09 11:55:51;;;;;;;4.18;1.50;;;32.80;28.40;;;;;;4902520;29;20039;-78
2022/08/09 11:58:19;;;;;;;3.75;1.23;;;32.90;28.70;;;;;;4902112;29;20076;-78
2022/08/09 12:01:07;;;;;;;2.22;1.70;;;33.00;28.60;;;;;;4902492;29;20043;-78
2022/08/09 12:03:34;;;;;;;2.25;1.50;;;33.00;28.50;;;;;;4902517;29;20103;-78
2022/08/09 12:06:07;;;;;;;4.07;1.30;;;32.80;28.30;;;;;;4902419;29;20028;-78
2022/08/09 12:08:32;;;;;;;2.25;1.23;;;32.90;28.40;;;;;;4902270;29;20595;-78
2022/08/09 12:11:00;;;;;;;3.33;1.58;;;32.90;28.50;;;;;;4922072;29;20025;-78
2022/08/09 12:13:38;;;;;;;2.72;1.08;;;32.80;28.70;;;;;;4902299;29;20033;-78
2022/08/09 12:16:10;;;;;;;2.13;1.10;;;32.80;29.00;;;;;;4902157;29;20044;-77
2022/08/09 12:18:38;;;;;;;3.05;1.35;;;32.90;29.00;;;;;;4902092;29;20032;-78
2022/08/09 12:21:06;;;;;;;2.35;1.15;;;32.90;28.10;;;;;;4902135;29;20036;-77
2022/08/09 12:23:33;;;;;;;2.50;1.17;;;32.80;27.60;;;;;;4901987;29;20033;-78
2022/08/09 12:26:01;;;;;;;2.85;1.27;;;32.90;27.70;;;;;;4916227;29;20124;-78
2022/08/09 12:28:27;;;;;;;1.88;1.23;;;32.90;27.70;;;;;;4901801;29;20069;-78
2022/08/09 12:30:56;;;;;;;3.05;1.50;;;32.80;28.00;;;;;;4901963;29;20028;-75
2022/08/09 12:33:23;;;;;;;2.90;1.30;;;32.90;28.20;;;;;;4916295;29;20088;-78
2022/08/09 12:36:01;;;;;;;2.20;1.17;;;32.80;27.70;;;;;;4901791;29;20028;-78
2022/08/09 12:38:29;;;;;;;3.30;1.27;;;32.80;27.50;;;;;;4901864;29;20107;-77
2022/08/09 12:40:57;;;;;;;3.38;1.30;;;32.80;27.70;;;;;;4901965;29;20056;-78
2022/08/09 12:43:25;;;;;;;3.72;1.42;;;32.90;27.40;;;;;;4901436;29;20389;-78
2022/08/09 12:45:55;;;;;;;1.75;1.30;;;33.00;27.20;;;;;;4914981;29;20122;-77
2022/08/09 12:48:22;;;;;;;2.38;1.35;;;33.10;28.10;;;;;;4915791;29;20672;-78
2022/08/09 12:50:49;;;;;;;1.75;1.20;;;33.10;28.00;;;;;;4916118;29;20032;-78
2022/08/09 12:53:37;;;;;;;3.55;1.15;;;33.10;27.60;;;;;;4914969;29;20089;-78
2022/08/09 12:56:12;;;;;;;2.15;1.35;;;33.00;26.70;;;;;;4901447;29;20393;-78
2022/08/09 12:58:39;;;;;;;2.25;1.00;;;33.10;27.20;;;;;;4901475;29;20076;-75
2022/08/09 13:01:23;;;;;;;1.30;1.00;;;33.10;27.30;;;;;;4901310;29;20040;-75
2022/08/09 13:04:16;;;;;;;2.15;1.00;;;33.00;27.40;;;;;;4900899;29;20064;-78